Time;durP1;ratioP1;P1;durP2;ratioP2;P2;SDS_P1;SDS_P2;PMS_P1;PMS_P2;Temp;Humidity;BMP_temperature;BMP_pressure;BME280_temperature;BME280_humidity;BME280_pressure;Samples;Min_cycle;Max_cycle;Signal;HPM_P1;HPM_P2
2022/07/11 00:00:09;;;;;;;1.17;0.88;;;;;;;24.81;43.92;100892.50;5072212;28;20045;-74
2022/07/11 00:02:39;;;;;;;;;;;;;;;24.76;44.56;100895.56;5073771;28;20053;-74
2022/07/11 00:05:09;;;;;;;1.08;0.73;;;;;;;24.67;44.15;100905.00;5070312;28;20290;-74
2022/07/11 00:07:38;;;;;;;2.10;0.60;;;;;;;24.59;43.89;100891.25;5056592;28;20052;-74
2022/07/11 00:10:06;;;;;;;1.60;0.60;;;;;;;24.48;44.76;100891.84;5070550;28;20052;-74
2022/07/11 00:12:34;;;;;;;0.63;0.60;;;;;;;24.48;44.41;100891.84;5056514;28;20415;-75
2022/07/11 00:15:02;;;;;;;0.70;0.70;;;;;;;24.46;44.12;100893.38;5059734;28;20056;-74
2022/07/11 00:17:30;;;;;;;0.65;0.65;;;;;;;24.52;43.97;100889.09;5066061;28;20044;-74
2022/07/11 00:19:58;;;;;;;0.73;0.70;;;;;;;24.50;43.57;100891.47;5057738;28;20064;-74
2022/07/11 00:22:26;;;;;;;0.88;0.88;;;;;;;24.47;43.87;100884.63;5056917;28;20048;-74
2022/07/11 00:24:54;;;;;;;1.88;0.75;;;;;;;24.48;44.00;100885.44;5066591;28;20040;-74
2022/07/11 00:27:22;;;;;;;0.77;0.70;;;;;;;24.46;44.03;100883.00;5069345;28;20045;-75
2022/07/11 00:29:50;;;;;;;1.08;0.70;;;;;;;24.49;43.92;100893.44;5064933;28;20040;-74
2022/07/11 00:32:18;;;;;;;0.77;0.77;;;;;;;24.59;43.01;100891.25;5059100;28;20052;-75
2022/07/11 00:34:46;;;;;;;0.65;0.65;;;;;;;24.58;42.87;100892.44;5068699;28;20178;-74
2022/07/11 00:37:14;;;;;;;0.80;0.80;;;;;;;24.64;42.68;100893.75;5067584;28;20064;-74
2022/07/11 00:39:42;;;;;;;1.10;0.77;;;;;;;24.60;43.90;100892.88;5065317;28;20403;-75
2022/07/11 00:42:10;;;;;;;0.60;0.60;;;;;;;24.55;42.51;100894.78;5068512;28;20067;-75
2022/07/11 00:44:38;;;;;;;1.02;0.93;;;;;;;24.61;42.79;100892.50;5068052;28;20060;-75
2022/07/11 00:47:05;;;;;;;0.82;0.82;;;;;;;24.56;43.14;100887.19;5068968;28;20518;-75
2022/07/11 00:49:33;;;;;;;1.02;0.93;;;;;;;24.56;42.61;100884.41;5063301;28;20052;-74
2022/07/11 00:52:02;;;;;;;0.73;0.57;;;;;;;24.50;42.79;100888.69;5072764;28;20045;-74
2022/07/11 00:54:30;;;;;;;0.88;0.88;;;;;;;24.52;43.23;100883.50;5072324;28;20138;-75
2022/07/11 00:56:58;;;;;;;0.50;0.50;;;;;;;24.46;44.17;100885.81;5072232;28;20060;-75
2022/07/11 00:59:29;;;;;;;0.80;0.73;;;;;;;24.54;42.94;100886.78;5072661;28;20399;-75
2022/07/11 01:01:57;;;;;;;1.27;0.90;;;;;;;24.54;43.27;100895.16;5073054;28;20045;-75
2022/07/11 01:04:26;;;;;;;1.05;0.77;;;;;;;24.47;43.12;100883.81;5072733;28;20049;-75
2022/07/11 01:06:54;;;;;;;1.48;0.70;;;;;;;24.47;43.07;100889.41;5071153;28;20052;-75
2022/07/11 01:09:25;;;;;;;2.92;0.95;;;;;;;24.40;43.48;100879.69;5076411;28;20060;-75
2022/07/11 01:12:08;;;;;;;1.50;0.93;;;;;;;24.46;43.51;100882.19;5074916;28;20056;-75
2022/07/11 01:14:36;;;;;;;1.30;0.63;;;;;;;24.50;43.56;100885.88;5073013;28;20044;-75
2022/07/11 01:17:04;;;;;;;0.57;0.57;;;;;;;24.41;43.80;100881.34;5072546;28;20052;-75
2022/07/11 01:19:32;;;;;;;0.60;0.60;;;;;;;24.43;43.53;100873.38;5072294;28;20049;-75
2022/07/11 01:22:03;;;;;;;0.90;0.90;;;;;;;24.32;43.89;100872.34;5072175;28;20052;-75
2022/07/11 01:24:32;;;;;;;0.52;0.52;;;;;;;24.32;43.90;100877.09;5072056;28;20049;-75
2022/07/11 01:27:01;;;;;;;1.17;0.80;;;;;;;24.39;43.90;100875.28;5071814;28;20063;-75
2022/07/11 01:29:29;;;;;;;1.90;0.77;;;;;;;24.39;43.92;100871.69;5072186;28;20064;-75
2022/07/11 01:31:57;;;;;;;1.02;1.02;;;;;;;24.45;43.94;100874.97;5072184;28;20040;-75
2022/07/11 01:34:25;;;;;;;2.13;0.90;;;;;;;24.39;45.08;100871.69;5072177;28;20478;-75
2022/07/11 01:36:53;;;;;;;0.40;0.40;;;;;;;24.41;44.22;100864.56;5072290;28;20055;-75
2022/07/11 01:39:21;;;;;;;0.70;0.70;;;;;;;24.47;43.89;100872.63;5071816;28;20052;-75
2022/07/11 01:41:49;;;;;;;0.80;0.80;;;;;;;24.45;44.41;100869.41;5070924;28;20044;-75
2022/07/11 01:44:17;;;;;;;1.60;0.98;;;;;;;24.37;45.71;100866.47;5071673;28;20044;-74
2022/07/11 01:46:45;;;;;;;0.68;0.68;;;;;;;24.32;45.42;100861.16;5071890;28;20061;-75
2022/07/11 01:49:13;;;;;;;0.70;0.70;;;;;;;24.38;44.86;100865.28;5072008;28;20063;-75
2022/07/11 01:51:42;;;;;;;1.73;0.98;;;;;;;24.40;44.85;100862.91;5071748;28;20490;-75
2022/07/11 01:54:10;;;;;;;1.50;0.70;;;;;;;24.46;44.81;100868.22;5071833;28;20403;-76
2022/07/11 01:56:38;;;;;;;0.85;0.77;;;;;;;24.49;45.01;100865.47;5086718;28;20052;-75
2022/07/11 01:59:06;;;;;;;0.82;0.82;;;;;;;24.35;45.42;100866.03;5071778;28;20068;-75
2022/07/11 02:01:34;;;;;;;1.30;0.82;;;;;;;24.31;45.52;100869.91;5072812;28;20052;-75
2022/07/11 02:04:02;;;;;;;0.55;0.55;;;;;;;24.27;45.14;100865.06;5075803;28;20541;-75
2022/07/11 02:06:30;;;;;;;1.13;0.90;;;;;;;24.20;45.70;100864.09;5072077;28;20051;-75
2022/07/11 02:08:58;;;;;;;0.73;0.73;;;;;;;24.24;45.34;100865.00;5065555;28;20041;-75
2022/07/11 02:11:26;;;;;;;0.77;0.77;;;;;;;24.19;45.42;100873.66;5068453;28;20041;-75
2022/07/11 02:13:54;;;;;;;0.70;0.70;;;;;;;24.15;45.52;100860.41;5062393;28;20519;-76
2022/07/11 02:16:22;;;;;;;2.13;0.98;;;;;;;24.24;45.51;100873.38;5065959;28;20039;-75
2022/07/11 02:18:50;;;;;;;0.60;0.60;;;;;;;24.26;46.09;100868.22;5063996;28;20041;-75
2022/07/11 02:21:19;;;;;;;1.15;0.60;;;;;;;24.23;45.59;100880.13;5063056;28;20045;-75
2022/07/11 02:23:47;;;;;;;0.93;0.80;;;;;;;24.11;46.82;100881.91;5064972;28;20056;-75
2022/07/11 02:26:14;;;;;;;0.60;0.60;;;;;;;24.03;46.32;100872.50;5061700;28;20480;-75
2022/07/11 02:28:42;;;;;;;0.90;0.65;;;;;;;24.07;46.32;100872.63;5070928;28;20040;-75
2022/07/11 02:31:10;;;;;;;0.82;0.82;;;;;;;24.14;46.56;100881.16;5061091;28;20045;-75
2022/07/11 02:33:38;;;;;;;1.05;0.82;;;;;;;24.09;46.30;100873.06;5066510;28;20040;-75
2022/07/11 02:36:07;;;;;;;0.65;0.65;;;;;;;24.00;46.54;100869.66;5070028;28;20049;-76
2022/07/11 02:38:35;;;;;;;0.60;0.60;;;;;;;24.02;47.01;100867.28;5065217;28;20045;-75
2022/07/11 02:41:03;;;;;;;2.38;0.90;;;;;;;24.05;46.56;100871.34;5062340;28;20049;-75
2022/07/11 02:43:31;;;;;;;2.92;1.00;;;;;;;23.99;46.94;100870.81;5064813;28;20045;-75
2022/07/11 02:46:00;;;;;;;0.80;0.75;;;;;;;23.92;47.35;100876.22;5063535;28;20053;-74
2022/07/11 02:48:28;;;;;;;0.80;0.80;;;;;;;23.83;47.32;100877.25;5067726;28;20053;-74
2022/07/11 02:50:56;;;;;;;1.25;0.90;;;;;;;23.87;47.49;100875.38;5068333;28;20056;-74
2022/07/11 02:53:24;;;;;;;1.00;0.90;;;;;;;23.85;47.31;100888.88;5073910;28;20036;-74
2022/07/11 02:55:52;;;;;;;1.05;0.70;;;;;;;23.80;47.67;100880.78;5074948;28;20049;-74
2022/07/11 02:58:20;;;;;;;0.52;0.52;;;;;;;23.75;47.89;100883.84;5074898;28;20111;-74
2022/07/11 03:00:48;;;;;;;1.00;1.00;;;;;;;23.71;47.81;100877.38;5074786;28;20394;-74
2022/07/11 03:03:16;;;;;;;1.02;0.77;;;;;;;23.72;47.91;100884.59;5074534;28;20068;-74
2022/07/11 03:05:44;;;;;;;0.90;0.75;;;;;;;23.73;48.01;100887.03;5074519;28;20040;-74
2022/07/11 03:08:12;;;;;;;3.03;1.10;;;;;;;23.82;47.18;100886.81;5074838;28;20052;-74
2022/07/11 03:10:40;;;;;;;1.02;0.80;;;;;;;23.73;47.43;100891.78;5060772;28;20054;-74
2022/07/11 03:13:08;;;;;;;0.93;0.80;;;;;;;23.77;46.89;100892.69;5074499;28;20049;-75
2022/07/11 03:15:36;;;;;;;1.20;1.10;;;;;;;23.65;47.36;100888.00;5074508;28;20055;-75
2022/07/11 03:18:04;;;;;;;0.80;0.80;;;;;;;23.61;47.47;100890.72;5074596;28;20060;-75
2022/07/11 03:20:32;;;;;;;2.05;0.90;;;;;;;23.64;47.96;100888.38;5077567;28;20045;-75
2022/07/11 03:23:00;;;;;;;0.98;0.90;;;;;;;23.60;47.70;100891.06;5074238;28;20414;-75
2022/07/11 03:25:28;;;;;;;1.20;0.80;;;;;;;23.53;48.33;100894.53;5074408;28;20040;-74
2022/07/11 03:27:56;;;;;;;0.93;0.82;;;;;;;23.49;48.01;100893.63;5073327;28;20047;-74
2022/07/11 03:30:24;;;;;;;1.40;0.82;;;;;;;23.48;48.75;100897.59;5074107;28;20040;-75
2022/07/11 03:32:51;;;;;;;1.10;1.10;;;;;;;23.47;48.47;100893.19;5074273;28;20048;-75
2022/07/11 03:38:07;;;;;;;1.60;0.80;;;;;;;23.49;48.48;100894.44;5073931;28;20061;-75
2022/07/11 03:40:35;;;;;;;0.80;0.80;;;;;;;23.49;49.55;100899.19;5072375;28;20043;-74
2022/07/11 03:43:03;;;;;;;1.27;1.05;;;;;;;23.52;49.06;100909.66;5073410;28;20055;-75
2022/07/11 03:45:31;;;;;;;2.65;1.05;;;;;;;23.56;49.28;100904.16;5069093;28;20040;-75
2022/07/11 03:47:59;;;;;;;1.63;1.40;;;;;;;23.53;49.82;100908.50;5066927;28;20061;-74
2022/07/11 03:50:27;;;;;;;3.20;1.60;;;;;;;23.52;50.86;100909.66;5065239;28;20048;-74
2022/07/11 03:52:55;;;;;;;4.03;1.65;;;;;;;23.60;51.88;100913.41;5073534;28;20060;-74
2022/07/11 03:55:23;;;;;;;1.33;1.23;;;;;;;23.66;51.72;100911.19;5070263;28;20051;-74
2022/07/11 03:57:51;;;;;;;1.05;0.95;;;;;;;23.72;52.48;100920.91;5072468;28;20052;-75
2022/07/11 04:00:20;;;;;;;1.92;1.20;;;;;;;23.78;52.37;100913.84;5069847;28;20037;-75
2022/07/11 04:02:48;;;;;;;4.15;1.20;;;;;;;23.89;52.81;100928.91;5072098;28;20059;-74
2022/07/11 04:05:16;;;;;;;1.15;1.10;;;;;;;23.77;54.59;100923.41;5070522;28;20044;-74
2022/07/11 04:07:44;;;;;;;0.95;0.93;;;;;;;23.74;55.35;100926.94;5072053;28;20043;-74
2022/07/11 04:10:12;;;;;;;2.45;1.08;;;;;;;23.72;55.81;100937.66;5070055;28;20056;-74
2022/07/11 04:12:40;;;;;;;1.10;1.10;;;;;;;23.74;56.81;100929.72;5072125;28;20063;-74
2022/07/11 04:15:08;;;;;;;0.95;0.95;;;;;;;23.68;57.54;100933.97;5070636;28;20095;-74
2022/07/11 04:17:37;;;;;;;1.52;1.05;;;;;;;23.70;57.71;100951.19;5071430;28;20042;-74
2022/07/11 04:20:06;;;;;;;2.65;1.52;;;;;;;23.76;57.71;100952.53;5071044;28;20048;-75
2022/07/11 04:22:34;;;;;;;1.42;1.33;;;;;;;23.76;57.70;100941.38;5067366;28;20084;-74
2022/07/11 04:25:02;;;;;;;2.03;1.10;;;;;;;23.84;57.43;100945.94;5070412;28;20056;-74
2022/07/11 04:27:30;;;;;;;3.25;1.67;;;;;;;23.87;57.36;100947.19;5069824;28;20040;-74
2022/07/11 04:30:05;;;;;;;2.30;1.00;;;;;;;23.89;57.04;100942.06;5071746;28;20391;-73
2022/07/11 04:32:35;;;;;;;2.25;1.08;;;;;;;23.96;57.53;100947.00;5065957;28;20052;-74
2022/07/11 04:35:04;;;;;;;1.17;1.08;;;;;;;23.96;57.05;100947.00;5066666;28;20044;-82
2022/07/11 04:37:32;;;;;;;1.85;1.05;;;;;;;24.07;57.23;100945.31;5047075;28;20044;-83
2022/07/11 04:40:00;;;;;;;1.48;1.20;;;;;;;24.31;56.25;100945.41;5018955;28;20040;-83
2022/07/11 04:42:28;;;;;;;1.40;1.30;;;;;;;24.57;55.98;100953.16;5050323;28;20489;-84
2022/07/11 04:44:56;;;;;;;1.85;0.90;;;;;;;24.65;55.13;100960.53;5050463;28;20059;-83
2022/07/11 04:47:24;;;;;;;1.30;1.20;;;;;;;24.73;55.10;100952.28;5044119;28;20048;-83
2022/07/11 04:49:52;;;;;;;2.42;1.27;;;;;;;24.64;54.98;100953.31;5047863;28;20045;-83
2022/07/11 04:52:20;;;;;;;1.17;1.08;;;;;;;24.56;54.93;100954.34;5053756;28;20045;-83
2022/07/11 04:54:49;;;;;;;2.22;1.15;;;;;;;24.68;54.75;100965.38;5046192;28;20060;-83
2022/07/11 04:57:19;;;;;;;1.85;1.10;;;;;;;24.47;55.03;100964.91;5053810;28;20048;-82
2022/07/11 04:59:47;;;;;;;2.38;1.35;;;;;;;24.38;54.81;100963.16;5050640;28;20391;-81
2022/07/11 05:02:27;;;;;;;1.77;1.35;;;;;;;24.51;54.53;100969.44;5047898;28;20067;-82
2022/07/11 05:05:03;;;;;;;2.25;1.30;;;;;;;24.53;54.06;100972.66;5063801;28;20056;-82
2022/07/11 05:07:31;;;;;;;0.93;0.93;;;;;;;24.53;53.88;100971.84;5031827;28;20074;-82
2022/07/11 05:09:59;;;;;;;1.85;0.80;;;;;;;24.69;53.25;100983.00;5049855;28;20048;-82
2022/07/11 05:12:27;;;;;;;2.05;1.00;;;;;;;24.97;52.13;100979.16;5048811;28;20557;-82
2022/07/11 05:14:58;;;;;;;1.73;1.10;;;;;;;25.24;51.16;100987.69;5049912;28;20538;-82
2022/07/11 05:17:26;;;;;;;1.38;1.30;;;;;;;25.28;50.73;100990.56;5054304;28;20041;-82
2022/07/11 05:19:54;;;;;;;3.05;1.20;;;;;;;25.33;50.53;100995.84;5051439;28;20045;-82
2022/07/11 05:22:23;;;;;;;1.48;1.30;;;;;;;25.37;50.39;101002.34;5053969;28;20056;-82
2022/07/11 05:24:51;;;;;;;1.90;1.05;;;;;;;25.49;50.65;100998.53;5051254;28;20052;-81
2022/07/11 05:27:19;;;;;;;0.90;0.90;;;;;;;25.35;50.21;101011.09;5042460;28;20037;-81
2022/07/11 05:29:48;;;;;;;1.58;0.90;;;;;;;25.26;50.84;101007.72;5034653;28;20394;-81
2022/07/11 05:32:16;;;;;;;1.70;1.10;;;;;;;25.35;50.22;101004.69;5049365;28;20052;-84
2022/07/11 05:34:44;;;;;;;2.47;1.23;;;;;;;25.42;49.89;101004.81;5041408;28;20040;-83
2022/07/11 05:37:12;;;;;;;4.47;1.27;;;;;;;25.36;49.30;101012.72;5051333;28;20127;-83
2022/07/11 05:39:40;;;;;;;2.42;1.10;;;;;;;25.28;49.39;101018.56;5045337;28;20056;-82
2022/07/11 05:42:08;;;;;;;1.10;1.08;;;;;;;25.22;49.23;101010.47;5041178;28;20045;-82
2022/07/11 05:44:36;;;;;;;1.10;0.90;;;;;;;25.45;48.55;101009.69;5052121;28;20215;-82
2022/07/11 05:47:06;;;;;;;2.58;1.35;;;;;;;25.33;48.30;101013.44;5046805;28;20127;-82
2022/07/11 05:49:34;;;;;;;0.80;0.80;;;;;;;25.28;48.67;101024.16;5049601;28;20482;-82
2022/07/11 05:52:02;;;;;;;1.27;1.17;;;;;;;25.45;48.63;101020.88;5051924;28;20059;-83
2022/07/11 05:54:30;;;;;;;0.88;0.88;;;;;;;25.67;47.85;101024.09;5030670;28;20048;-82
2022/07/11 05:56:58;;;;;;;1.27;1.13;;;;;;;25.62;47.82;101022.41;5067408;28;20048;-83
2022/07/11 05:59:30;;;;;;;2.05;1.08;;;;;;;25.64;47.49;101022.03;5069946;28;20040;-83
2022/07/11 06:01:58;;;;;;;1.75;0.70;;;;;;;25.74;47.73;101023.41;5067247;28;20048;-82
2022/07/11 06:04:27;;;;;;;1.20;1.10;;;;;;;25.72;47.81;101018.16;5067943;28;20734;-81
2022/07/11 06:06:58;;;;;;;0.88;0.80;;;;;;;25.99;47.10;101020.19;5066254;28;20381;-82
2022/07/11 06:09:26;;;;;;;2.00;1.00;;;;;;;25.94;46.91;101029.75;5067153;28;20495;-81
2022/07/11 06:11:54;;;;;;;1.80;1.02;;;;;;;25.93;47.13;101033.75;5067814;28;20036;-82
2022/07/11 06:14:23;;;;;;;1.17;1.10;;;;;;;26.07;46.74;101026.75;5069438;28;20052;-82
2022/07/11 06:16:51;;;;;;;1.30;1.10;;;;;;;26.19;46.56;101029.34;5066407;28;20049;-82
2022/07/11 06:19:22;;;;;;;1.58;1.10;;;;;;;26.11;47.52;101028.44;5068717;28;20051;-82
2022/07/11 06:21:50;;;;;;;1.48;1.00;;;;;;;26.16;47.03;101019.69;5067141;28;20107;-80
2022/07/11 06:24:18;;;;;;;0.73;0.73;;;;;;;26.25;47.21;101024.25;5067013;28;20051;-82
2022/07/11 06:26:46;;;;;;;6.10;1.17;;;;;;;26.17;47.71;101026.09;5061492;28;20097;-81
2022/07/11 06:29:14;;;;;;;1.10;1.00;;;;;;;26.34;46.75;101033.19;5083293;28;20491;-81
2022/07/11 06:31:43;;;;;;;1.35;1.00;;;;;;;26.49;46.87;101027.81;5062863;28;20373;-81
2022/07/11 06:34:11;;;;;;;1.48;1.38;;;;;;;26.02;48.66;101042.72;5051003;28;20037;-81
2022/07/11 06:36:39;;;;;;;1.38;1.10;;;;;;;26.22;48.36;101034.19;5052731;28;20045;-82
2022/07/11 06:39:07;;;;;;;1.50;1.40;;;;;;;25.90;49.25;101046.50;5079217;28;20044;-81
2022/07/11 06:41:34;;;;;;;1.52;1.30;;;;;;;25.83;49.06;101049.19;5053865;28;20041;-80
2022/07/11 06:44:02;;;;;;;1.50;1.40;;;;;;;25.65;49.71;101034.88;5052318;28;20045;-81
2022/07/11 06:46:30;;;;;;;1.30;1.20;;;;;;;25.57;50.05;101035.94;5052834;28;20428;-82
2022/07/11 06:48:58;;;;;;;3.30;1.30;;;;;;;25.75;50.14;101051.06;5052964;28;20060;-81
2022/07/11 06:51:26;;;;;;;1.67;1.58;;;;;;;25.91;49.70;101047.34;5071058;28;20041;-81
2022/07/11 06:53:54;;;;;;;2.28;1.15;;;;;;;26.12;49.24;101051.66;5090202;28;20387;-82
2022/07/11 06:56:22;;;;;;;1.50;1.10;;;;;;;25.88;50.61;101057.31;5074835;28;20037;-81
2022/07/11 06:58:50;;;;;;;1.38;1.27;;;;;;;25.94;51.02;101063.41;5090111;28;20052;-82
2022/07/11 07:01:18;;;;;;;1.02;1.02;;;;;;;26.26;50.18;101062.34;5074675;28;20049;-82
2022/07/11 07:03:46;;;;;;;1.52;1.42;;;;;;;26.40;49.43;101068.16;5089909;28;20043;-82
2022/07/11 07:06:16;;;;;;;1.08;1.00;;;;;;;26.14;50.30;101071.72;5074551;28;20044;-81
2022/07/11 07:08:44;;;;;;;1.35;0.93;;;;;;;26.33;49.68;101064.44;5089793;28;20037;-81
2022/07/11 07:11:12;;;;;;;3.67;1.02;;;;;;;26.49;49.14;101070.69;5074572;28;20047;-81
2022/07/11 07:13:40;;;;;;;3.42;1.20;;;;;;;26.33;49.54;101067.25;5089730;28;20426;-81
2022/07/11 07:16:08;;;;;;;1.95;1.50;;;;;;;26.42;49.36;101067.78;5074348;28;20041;-81
2022/07/11 07:18:42;;;;;;;1.33;1.17;;;;;;;26.35;48.97;101062.06;5073087;28;20044;-81
2022/07/11 07:21:11;;;;;;;1.52;1.30;;;;;;;26.50;48.66;101068.69;5074277;28;20047;-82
2022/07/11 07:23:39;;;;;;;2.80;1.45;;;;;;;26.36;49.10;101075.72;5073111;28;20044;-81
2022/07/11 07:26:07;;;;;;;1.23;1.10;;;;;;;26.28;49.08;101072.00;5074073;28;20052;-81
2022/07/11 07:28:35;;;;;;;1.35;1.25;;;;;;;26.24;49.22;101062.69;5074190;28;20483;-82
2022/07/11 07:31:04;;;;;;;1.40;1.30;;;;;;;26.51;49.03;101073.94;5074012;28;20056;-81
2022/07/11 07:33:32;;;;;;;1.00;1.00;;;;;;;26.20;49.42;101070.22;5074107;28;20036;-81
2022/07/11 07:36:13;;;;;;;3.88;1.40;;;;;;;26.45;48.82;101064.22;5073878;28;20045;-82
2022/07/11 07:38:43;;;;;;;1.27;1.20;;;;;;;26.69;47.91;101062.16;5073969;28;20049;-81
2022/07/11 07:41:13;;;;;;;2.72;1.58;;;;;;;26.80;47.72;101077.16;5071918;28;20045;-81
2022/07/11 07:43:42;;;;;;;1.60;1.50;;;;;;;26.53;47.61;101071.56;5073926;28;20041;-82
2022/07/11 07:46:10;;;;;;;1.30;1.20;;;;;;;26.65;47.92;101064.09;5073464;28;20049;-81
2022/07/11 07:48:38;;;;;;;2.38;1.20;;;;;;;26.82;47.05;101063.53;5073864;28;20047;-82
2022/07/11 07:51:07;;;;;;;1.52;1.42;;;;;;;26.69;47.34;101088.22;5073621;28;20041;-81
2022/07/11 07:53:35;;;;;;;1.23;1.08;;;;;;;26.91;46.66;101065.22;5073559;28;20403;-82
2022/07/11 07:56:04;;;;;;;1.23;1.10;;;;;;;26.72;47.04;101049.38;5073920;28;20052;-82
2022/07/11 07:58:33;;;;;;;1.30;1.20;;;;;;;26.71;47.57;101065.38;5073321;28;20060;-82
2022/07/11 08:03:47;;;;;;;2.13;1.42;;;;;;;26.59;48.23;101062.81;5073486;28;20047;-81
2022/07/11 08:06:15;;;;;;;1.33;1.13;;;;;;;26.78;47.39;101068.28;5073444;28;20055;-82
2022/07/11 08:08:43;;;;;;;1.20;1.08;;;;;;;27.02;46.52;101063.41;5072039;28;20040;-79
2022/07/11 08:11:11;;;;;;;1.40;1.30;;;;;;;27.00;46.85;101062.16;5073449;28;20123;-82
2022/07/11 08:14:00;;;;;;;2.20;1.40;;;;;;;26.76;47.32;101055.81;5073116;28;20495;-80
2022/07/11 08:16:29;;;;;;;2.78;1.25;;;;;;;27.09;46.57;101066.28;5073044;28;20048;-81
2022/07/11 08:19:00;;;;;;;2.65;1.30;;;;;;;26.92;47.01;101059.28;5071964;28;20048;-81
2022/07/11 08:21:29;;;;;;;1.52;1.42;;;;;;;27.36;46.07;101052.16;5072958;28;20063;-81
2022/07/11 08:23:57;;;;;;;1.08;0.98;;;;;;;26.98;45.87;101056.94;5071949;28;20037;-80
2022/07/11 08:26:25;;;;;;;1.83;1.33;;;;;;;26.91;46.48;101051.19;5073061;28;20059;-80
2022/07/11 08:29:01;;;;;;;1.40;1.30;;;;;;;27.07;46.12;101049.03;5073025;28;20075;-81
2022/07/11 08:31:30;;;;;;;2.70;1.40;;;;;;;27.08;46.53;101047.81;5072969;28;20045;-81
2022/07/11 08:33:59;;;;;;;1.70;1.55;;;;;;;27.25;46.52;101042.81;5072791;28;20048;-81
2022/07/11 08:36:29;;;;;;;1.65;1.20;;;;;;;27.50;45.64;101031.00;5072927;28;20475;-81
2022/07/11 08:38:59;;;;;;;2.47;1.23;;;;;;;27.69;44.79;101032.84;5072783;28;20047;-81
2022/07/11 08:41:27;;;;;;;1.75;1.35;;;;;;;27.58;44.95;101038.38;5072608;28;20048;-81
2022/07/11 08:43:56;;;;;;;1.67;1.58;;;;;;;27.73;44.73;101036.50;5072528;28;20045;-81
2022/07/11 08:46:26;;;;;;;2.67;1.50;;;;;;;27.75;44.40;101041.69;5072469;28;20055;-81
2022/07/11 08:48:55;;;;;;;3.70;1.35;;;;;;;27.76;44.92;101037.72;5071211;28;20506;-82
2022/07/11 08:51:24;;;;;;;1.25;1.15;;;;;;;27.88;44.56;101043.03;5072420;28;20051;-81
2022/07/11 08:53:53;;;;;;;2.55;1.23;;;;;;;28.06;44.07;101050.81;5072584;28;20390;-82
2022/07/11 08:56:21;;;;;;;4.97;1.90;;;;;;;28.19;44.33;101036.44;5072367;28;20052;-82
2022/07/11 08:58:50;;;;;;;2.80;1.20;;;;;;;28.05;43.81;101037.94;5072267;28;20051;-82
2022/07/11 09:01:31;;;;;;;1.45;1.25;;;;;;;28.03;43.74;101035.53;5072330;28;20414;-82
2022/07/11 09:04:00;;;;;;;2.00;1.50;;;;;;;28.13;43.09;101045.25;5072400;28;20048;-82
2022/07/11 09:06:29;;;;;;;1.13;1.08;;;;;;;27.90;42.92;101034.19;5072258;28;20343;-82
2022/07/11 09:09:00;;;;;;;1.25;1.20;;;;;;;28.01;43.03;101032.28;5072235;28;20410;-82
2022/07/11 09:11:48;;;;;;;1.20;1.10;;;;;;;28.21;43.20;101028.41;5071731;28;20482;-81
2022/07/11 09:14:30;;;;;;;2.88;1.40;;;;;;;28.53;42.37;101025.81;5072268;28;20048;-81
2022/07/11 09:17:00;;;;;;;1.95;1.50;;;;;;;28.43;42.49;101027.38;5072050;28;20060;-82
2022/07/11 09:19:30;;;;;;;2.42;1.50;;;;;;;28.34;42.01;101028.94;5071934;28;20049;-80
2022/07/11 09:25:21;;;;;;;1.20;1.20;;;;;;;28.02;42.78;101033.88;5071936;28;20049;-81
2022/07/11 09:27:54;;;;;;;1.55;1.42;;;;;;;28.17;42.33;101037.66;5071851;28;20079;-82
2022/07/11 09:30:28;;;;;;;1.52;1.35;;;;;;;28.20;42.48;101026.78;5072045;28;20055;-82
2022/07/11 09:33:06;;;;;;;;;;;;;;;28.47;41.47;101030.22;5072613;28;20056;-82
2022/07/11 09:35:39;;;;;;;1.52;1.38;;;;;;;28.50;40.74;101025.81;5071993;28;19921;-80
2022/07/11 09:38:09;;;;;;;1.33;0.97;;;;;;;28.44;39.80;101031.78;5071686;28;20051;-82
2022/07/11 09:40:38;;;;;;;1.60;1.50;;;;;;;28.53;38.80;101030.63;5071766;28;20372;-82
2022/07/11 09:43:06;;;;;;;2.05;1.55;;;;;;;28.42;39.86;101025.75;5071674;28;20056;-82
2022/07/11 09:45:35;;;;;;;1.70;1.50;;;;;;;28.60;40.74;101022.25;5071597;28;20053;-81
2022/07/11 09:48:11;;;;;;;1.48;1.25;;;;;;;28.72;39.54;101020.28;5071485;28;20041;-81
2022/07/11 09:50:53;;;;;;;1.30;1.20;;;;;;;28.48;39.05;101025.41;5071635;28;20045;-81
2022/07/11 09:53:21;;;;;;;1.20;1.17;;;;;;;28.37;38.39;101025.31;5071562;28;20049;-82
2022/07/11 09:55:50;;;;;;;1.30;1.20;;;;;;;28.77;38.89;101029.16;5070478;28;20040;-81
2022/07/11 09:58:28;;;;;;;4.47;1.30;;;;;;;28.76;38.51;101023.91;5071586;28;20048;-81
2022/07/11 10:00:56;;;;;;;1.45;1.33;;;;;;;28.80;37.73;101013.47;5071644;28;20059;-82
2022/07/11 10:03:25;;;;;;;1.85;1.40;;;;;;;29.05;36.46;101024.03;5071619;28;20044;-81
2022/07/11 10:06:13;;;;;;;1.20;1.10;;;;;;;29.24;35.67;101020.06;5070678;28;20487;-82
2022/07/11 10:08:41;;;;;;;1.40;1.30;;;;;;;29.28;37.36;101017.25;5071349;28;20789;-82
2022/07/11 10:11:11;;;;;;;5.72;1.73;;;;;;;29.04;37.85;101028.06;5070395;28;20506;-81
2022/07/11 10:13:40;;;;;;;4.32;1.42;;;;;;;29.47;36.91;101022.53;5071536;28;20051;-82
2022/07/11 10:16:40;;;;;;;1.65;1.15;;;;;;;29.00;38.12;101027.25;5071406;28;20036;-81
2022/07/11 10:19:25;;;;;;;4.15;1.27;;;;;;;29.20;38.67;101025.72;5071328;28;20056;-82
2022/07/11 10:22:04;;;;;;;2.70;1.20;;;;;;;29.30;36.98;101023.28;5071911;28;20049;-81
2022/07/11 10:24:37;;;;;;;1.95;1.67;;;;;;;29.43;37.29;101023.72;5075426;28;20037;-80
2022/07/11 10:27:28;;;;;;;1.33;1.23;;;;;;;29.18;36.37;101024.50;5075389;28;20045;-80
2022/07/11 10:30:01;;;;;;;1.42;1.33;;;;;;;29.14;37.66;101030.13;5075333;28;20044;-81
2022/07/11 10:32:29;;;;;;;1.52;1.42;;;;;;;29.22;37.94;101011.19;5075184;28;20048;-81
2022/07/11 10:35:06;;;;;;;3.83;1.58;;;;;;;29.82;36.81;101033.44;5075196;28;20036;-80
2022/07/11 10:37:54;;;;;;;1.50;1.25;;;;;;;30.01;36.12;101026.59;5073308;28;20052;-81
2022/07/11 10:40:43;;;;;;;1.17;1.13;;;;;;;29.96;36.53;101030.63;5074949;28;20052;-81
2022/07/11 10:43:11;;;;;;;1.23;1.10;;;;;;;29.49;37.95;101030.63;5074961;28;20048;-80
2022/07/11 10:45:50;;;;;;;1.48;1.38;;;;;;;29.70;36.10;101027.00;5074733;28;20839;-81
2022/07/11 10:48:18;;;;;;;1.40;1.30;;;;;;;29.84;36.55;101023.38;5072470;28;20418;-81
2022/07/11 10:50:47;;;;;;;1.98;1.83;;;;;;;29.77;36.77;101012.09;5063772;28;20044;-81
2022/07/11 10:53:22;;;;;;;1.98;1.80;;;;;;;29.80;37.76;101021.78;5070424;28;20059;-81
2022/07/11 10:56:06;;;;;;;2.88;1.42;;;;;;;29.69;37.11;101025.41;5070974;28;20045;-80
2022/07/11 10:58:41;;;;;;;3.33;1.63;;;;;;;29.91;36.17;101022.59;5069367;28;20048;-81
2022/07/11 11:01:14;;;;;;;1.77;1.27;;;;;;;29.70;36.33;101029.81;5070662;28;20063;-81
2022/07/11 11:03:43;;;;;;;2.55;1.60;;;;;;;30.06;35.38;101028.19;5067527;28;20043;-81
2022/07/11 11:06:12;;;;;;;2.42;1.52;;;;;;;29.86;36.59;101025.81;5071430;28;20608;-81
2022/07/11 11:08:42;;;;;;;1.77;1.30;;;;;;;30.31;36.85;101011.25;5068897;28;20567;-81
2022/07/11 11:11:19;;;;;;;1.85;1.33;;;;;;;30.46;35.96;101017.66;5072175;28;20052;-81
2022/07/11 11:14:19;;;;;;;2.08;1.38;;;;;;;30.72;35.71;101017.63;5086267;28;20490;-81
2022/07/11 11:16:50;;;;;;;1.48;1.27;;;;;;;30.60;35.71;101010.34;5071226;28;20059;-80
2022/07/11 11:19:46;;;;;;;1.67;1.58;;;;;;;30.63;35.72;101013.16;5070267;28;20060;-81
2022/07/11 11:22:17;;;;;;;1.40;1.30;;;;;;;30.51;34.47;101010.78;5069133;28;20055;-80
2022/07/11 11:24:47;;;;;;;1.30;1.20;;;;;;;30.18;34.11;100993.94;5070313;28;20047;-81
2022/07/11 11:27:35;;;;;;;2.60;1.35;;;;;;;30.54;34.97;100999.47;5071318;28;20059;-81
2022/07/11 11:30:05;;;;;;;3.47;1.40;;;;;;;30.61;36.01;101000.66;5067180;28;20390;-81
2022/07/11 11:32:35;;;;;;;2.22;1.48;;;;;;;30.61;36.10;100997.84;5069664;28;20037;-81
2022/07/11 11:35:05;;;;;;;1.90;1.33;;;;;;;30.61;36.26;101000.66;5069561;28;20044;-80
2022/07/11 11:37:34;;;;;;;2.90;1.58;;;;;;;31.00;35.82;101005.38;5068415;28;20049;-81
2022/07/11 11:40:03;;;;;;;1.48;1.38;;;;;;;31.28;35.08;100997.94;5070660;28;20053;-81
2022/07/11 11:42:32;;;;;;;2.17;1.38;;;;;;;31.08;35.33;100997.66;5085298;28;20041;-81
2022/07/11 11:45:07;;;;;;;2.60;1.50;;;;;;;31.02;34.72;100997.28;5060297;28;20535;-81
2022/07/11 11:47:37;;;;;;;1.73;1.60;;;;;;;30.90;34.81;100989.25;5057808;28;20045;-80